sensor_id;sensor_type;location;lat;lon;timestamp;P1;durP1;ratioP1;P2;durP2;ratioP2
6505;SDS011;3286;49.858;8.768;2024-02-04T00:01:16;1.73;;;1.63;;
6505;SDS011;3286;49.858;8.768;2024-02-04T00:03:44;2.07;;;1.83;;
6505;SDS011;3286;49.858;8.768;2024-02-04T00:06:11;6.30;;;1.97;;
6505;SDS011;3286;49.858;8.768;2024-02-04T00:08:38;2.70;;;2.10;;
6505;SDS011;3286;49.858;8.768;2024-02-04T00:11:04;2.80;;;2.03;;
6505;SDS011;3286;49.858;8.768;2024-02-04T00:13:33;2.20;;;1.90;;
6505;SDS011;3286;49.858;8.768;2024-02-04T00:16:00;2.93;;;2.30;;
6505;SDS011;3286;49.858;8.768;2024-02-04T00:18:27;2.10;;;1.87;;
6505;SDS011;3286;49.858;8.768;2024-02-04T00:20:55;2.90;;;2.10;;
6505;SDS011;3286;49.858;8.768;2024-02-04T00:23:21;2.17;;;1.97;;
6505;SDS011;3286;49.858;8.768;2024-02-04T00:25:48;3.97;;;1.93;;
6505;SDS011;3286;49.858;8.768;2024-02-04T00:28:15;2.00;;;1.80;;
6505;SDS011;3286;49.858;8.768;2024-02-04T00:30:50;1.80;;;1.70;;
6505;SDS011;3286;49.858;8.768;2024-02-04T00:33:20;2.73;;;1.70;;
6505;SDS011;3286;49.858;8.768;2024-02-04T00:35:46;2.30;;;2.10;;
6505;SDS011;3286;49.858;8.768;2024-02-04T00:38:14;1.83;;;1.73;;
6505;SDS011;3286;49.858;8.768;2024-02-04T00:40:41;2.13;;;1.80;;
6505;SDS011;3286;49.858;8.768;2024-02-04T00:43:08;2.47;;;1.70;;
6505;SDS011;3286;49.858;8.768;2024-02-04T00:45:34;1.90;;;1.50;;
6505;SDS011;3286;49.858;8.768;2024-02-04T00:48:01;1.90;;;1.70;;
6505;SDS011;3286;49.858;8.768;2024-02-04T00:50:28;1.70;;;1.60;;
6505;SDS011;3286;49.858;8.768;2024-02-04T00:52:55;2.10;;;1.87;;
6505;SDS011;3286;49.858;8.768;2024-02-04T00:55:22;2.17;;;1.70;;
6505;SDS011;3286;49.858;8.768;2024-02-04T00:57:49;1.87;;;1.70;;
6505;SDS011;3286;49.858;8.768;2024-02-04T01:00:16;2.47;;;1.60;;
6505;SDS011;3286;49.858;8.768;2024-02-04T01:02:43;1.80;;;1.50;;
6505;SDS011;3286;49.858;8.768;2024-02-04T01:05:09;1.83;;;1.70;;
6505;SDS011;3286;49.858;8.768;2024-02-04T01:07:37;1.70;;;1.60;;
6505;SDS011;3286;49.858;8.768;2024-02-04T01:10:04;1.93;;;1.40;;
6505;SDS011;3286;49.858;8.768;2024-02-04T01:12:35;1.40;;;1.30;;
6505;SDS011;3286;49.858;8.768;2024-02-04T01:15:02;5.07;;;1.20;;
6505;SDS011;3286;49.858;8.768;2024-02-04T01:17:30;1.57;;;1.47;;
6505;SDS011;3286;49.858;8.768;2024-02-04T01:19:57;1.60;;;1.50;;
6505;SDS011;3286;49.858;8.768;2024-02-04T01:22:24;1.70;;;1.60;;
6505;SDS011;3286;49.858;8.768;2024-02-04T01:24:52;1.60;;;1.50;;
6505;SDS011;3286;49.858;8.768;2024-02-04T01:27:19;1.60;;;1.50;;
6505;SDS011;3286;49.858;8.768;2024-02-04T01:29:47;1.70;;;1.60;;
6505;SDS011;3286;49.858;8.768;2024-02-04T01:32:13;2.20;;;1.70;;
6505;SDS011;3286;49.858;8.768;2024-02-04T01:34:41;1.50;;;1.40;;
6505;SDS011;3286;49.858;8.768;2024-02-04T01:37:07;1.77;;;1.67;;
6505;SDS011;3286;49.858;8.768;2024-02-04T01:39:34;1.57;;;1.43;;
6505;SDS011;3286;49.858;8.768;2024-02-04T01:42:01;1.53;;;1.43;;
6505;SDS011;3286;49.858;8.768;2024-02-04T01:44:29;1.70;;;1.60;;
6505;SDS011;3286;49.858;8.768;2024-02-04T01:46:57;2.67;;;1.27;;
6505;SDS011;3286;49.858;8.768;2024-02-04T01:49:24;1.30;;;1.20;;
6505;SDS011;3286;49.858;8.768;2024-02-04T01:51:51;2.00;;;1.50;;
6505;SDS011;3286;49.858;8.768;2024-02-04T01:54:19;2.17;;;1.60;;
6505;SDS011;3286;49.858;8.768;2024-02-04T01:56:48;1.40;;;1.30;;
6505;SDS011;3286;49.858;8.768;2024-02-04T01:59:15;1.40;;;1.30;;
6505;SDS011;3286;49.858;8.768;2024-02-04T02:01:43;1.53;;;1.40;;
6505;SDS011;3286;49.858;8.768;2024-02-04T02:04:11;1.40;;;1.30;;
6505;SDS011;3286;49.858;8.768;2024-02-04T02:06:38;1.50;;;1.30;;
6505;SDS011;3286;49.858;8.768;2024-02-04T02:09:07;1.87;;;1.57;;
6505;SDS011;3286;49.858;8.768;2024-02-04T02:11:37;2.80;;;1.80;;
6505;SDS011;3286;49.858;8.768;2024-02-04T02:14:08;1.70;;;1.40;;
6505;SDS011;3286;49.858;8.768;2024-02-04T02:16:39;1.53;;;1.43;;
6505;SDS011;3286;49.858;8.768;2024-02-04T02:19:10;1.90;;;1.70;;
6505;SDS011;3286;49.858;8.768;2024-02-04T02:21:52;1.60;;;1.50;;
6505;SDS011;3286;49.858;8.768;2024-02-04T02:24:37;3.27;;;1.80;;
6505;SDS011;3286;49.858;8.768;2024-02-04T02:27:04;1.73;;;1.63;;
6505;SDS011;3286;49.858;8.768;2024-02-04T02:29:31;2.80;;;1.90;;
6505;SDS011;3286;49.858;8.768;2024-02-04T02:31:58;2.63;;;1.83;;
6505;SDS011;3286;49.858;8.768;2024-02-04T02:34:26;2.47;;;1.87;;
6505;SDS011;3286;49.858;8.768;2024-02-04T02:36:55;2.33;;;1.63;;
6505;SDS011;3286;49.858;8.768;2024-02-04T02:39:36;1.93;;;1.77;;
6505;SDS011;3286;49.858;8.768;2024-02-04T02:42:09;2.30;;;1.90;;
6505;SDS011;3286;49.858;8.768;2024-02-04T02:44:38;2.47;;;1.90;;
6505;SDS011;3286;49.858;8.768;2024-02-04T02:47:05;1.90;;;1.63;;
6505;SDS011;3286;49.858;8.768;2024-02-04T02:49:33;2.13;;;1.93;;
6505;SDS011;3286;49.858;8.768;2024-02-04T02:52:00;2.70;;;1.80;;
6505;SDS011;3286;49.858;8.768;2024-02-04T02:54:27;2.00;;;1.80;;
6505;SDS011;3286;49.858;8.768;2024-02-04T02:56:55;2.23;;;2.03;;
6505;SDS011;3286;49.858;8.768;2024-02-04T02:59:21;3.93;;;2.03;;
6505;SDS011;3286;49.858;8.768;2024-02-04T03:01:48;2.63;;;1.80;;
6505;SDS011;3286;49.858;8.768;2024-02-04T03:04:15;1.80;;;1.60;;
6505;SDS011;3286;49.858;8.768;2024-02-04T03:06:41;2.00;;;1.60;;
6505;SDS011;3286;49.858;8.768;2024-02-04T03:09:08;1.90;;;1.80;;
6505;SDS011;3286;49.858;8.768;2024-02-04T03:11:35;2.67;;;1.90;;
6505;SDS011;3286;49.858;8.768;2024-02-04T03:14:04;2.67;;;1.80;;
6505;SDS011;3286;49.858;8.768;2024-02-04T03:16:31;3.93;;;2.33;;
6505;SDS011;3286;49.858;8.768;2024-02-04T03:18:58;2.03;;;1.87;;
6505;SDS011;3286;49.858;8.768;2024-02-04T03:21:24;2.20;;;1.73;;
6505;SDS011;3286;49.858;8.768;2024-02-04T03:23:51;3.40;;;2.00;;
6505;SDS011;3286;49.858;8.768;2024-02-04T03:26:17;2.77;;;1.90;;
6505;SDS011;3286;49.858;8.768;2024-02-04T03:28:45;2.33;;;2.00;;
6505;SDS011;3286;49.858;8.768;2024-02-04T03:31:13;3.53;;;2.37;;
6505;SDS011;3286;49.858;8.768;2024-02-04T03:33:46;2.40;;;2.20;;
6505;SDS011;3286;49.858;8.768;2024-02-04T03:36:15;2.17;;;2.03;;
6505;SDS011;3286;49.858;8.768;2024-02-04T03:38:46;2.47;;;2.13;;
6505;SDS011;3286;49.858;8.768;2024-02-04T03:41:13;3.07;;;2.10;;
6505;SDS011;3286;49.858;8.768;2024-02-04T03:43:40;2.70;;;2.30;;
6505;SDS011;3286;49.858;8.768;2024-02-04T03:46:06;2.53;;;2.00;;
6505;SDS011;3286;49.858;8.768;2024-02-04T03:48:34;2.10;;;1.90;;
6505;SDS011;3286;49.858;8.768;2024-02-04T03:51:01;2.80;;;2.00;;
6505;SDS011;3286;49.858;8.768;2024-02-04T03:53:28;2.40;;;1.90;;
6505;SDS011;3286;49.858;8.768;2024-02-04T03:55:55;2.43;;;1.87;;
6505;SDS011;3286;49.858;8.768;2024-02-04T03:58:22;3.63;;;1.80;;
6505;SDS011;3286;49.858;8.768;2024-02-04T04:00:54;4.27;;;1.97;;
6505;SDS011;3286;49.858;8.768;2024-02-04T04:03:21;2.00;;;1.73;;
6505;SDS011;3286;49.858;8.768;2024-02-04T04:05:49;2.00;;;1.80;;
6505;SDS011;3286;49.858;8.768;2024-02-04T04:08:16;1.90;;;1.70;;
6505;SDS011;3286;49.858;8.768;2024-02-04T04:10:43;1.50;;;1.40;;
6505;SDS011;3286;49.858;8.768;2024-02-04T04:13:10;1.60;;;1.50;;
6505;SDS011;3286;49.858;8.768;2024-02-04T04:15:37;1.73;;;1.63;;
6505;SDS011;3286;49.858;8.768;2024-02-04T04:18:04;1.73;;;1.63;;
6505;SDS011;3286;49.858;8.768;2024-02-04T04:20:30;1.50;;;1.40;;
6505;SDS011;3286;49.858;8.768;2024-02-04T04:22:58;2.03;;;1.70;;
6505;SDS011;3286;49.858;8.768;2024-02-04T04:25:25;1.93;;;1.60;;
6505;SDS011;3286;49.858;8.768;2024-02-04T04:27:52;1.90;;;1.60;;
6505;SDS011;3286;49.858;8.768;2024-02-04T04:30:18;1.80;;;1.70;;
6505;SDS011;3286;49.858;8.768;2024-02-04T04:32:45;2.13;;;1.70;;
6505;SDS011;3286;49.858;8.768;2024-02-04T04:35:11;1.70;;;1.50;;
6505;SDS011;3286;49.858;8.768;2024-02-04T04:37:38;2.03;;;1.87;;
6505;SDS011;3286;49.858;8.768;2024-02-04T04:40:07;2.20;;;2.00;;
6505;SDS011;3286;49.858;8.768;2024-02-04T04:42:34;1.60;;;1.50;;
6505;SDS011;3286;49.858;8.768;2024-02-04T04:45:01;2.07;;;1.83;;
6505;SDS011;3286;49.858;8.768;2024-02-04T04:47:28;1.97;;;1.60;;
6505;SDS011;3286;49.858;8.768;2024-02-04T04:49:54;2.43;;;2.00;;
6505;SDS011;3286;49.858;8.768;2024-02-04T04:52:21;2.10;;;1.73;;
6505;SDS011;3286;49.858;8.768;2024-02-04T04:54:47;2.30;;;1.80;;
6505;SDS011;3286;49.858;8.768;2024-02-04T04:57:15;2.17;;;1.90;;
6505;SDS011;3286;49.858;8.768;2024-02-04T04:59:42;1.83;;;1.73;;
6505;SDS011;3286;49.858;8.768;2024-02-04T05:02:09;2.27;;;1.97;;
6505;SDS011;3286;49.858;8.768;2024-02-04T05:04:36;1.83;;;1.53;;
6505;SDS011;3286;49.858;8.768;2024-02-04T05:07:03;2.43;;;1.90;;
6505;SDS011;3286;49.858;8.768;2024-02-04T05:09:30;2.77;;;1.90;;
6505;SDS011;3286;49.858;8.768;2024-02-04T05:11:57;1.93;;;1.57;;
6505;SDS011;3286;49.858;8.768;2024-02-04T05:14:26;2.00;;;1.60;;
6505;SDS011;3286;49.858;8.768;2024-02-04T05:16:53;2.87;;;1.60;;
6505;SDS011;3286;49.858;8.768;2024-02-04T05:19:20;1.40;;;1.30;;
6505;SDS011;3286;49.858;8.768;2024-02-04T05:21:47;1.90;;;1.50;;
6505;SDS011;3286;49.858;8.768;2024-02-04T05:24:14;1.27;;;1.17;;
6505;SDS011;3286;49.858;8.768;2024-02-04T05:26:58;1.57;;;1.47;;
6505;SDS011;3286;49.858;8.768;2024-02-04T05:29:27;2.00;;;1.60;;
6505;SDS011;3286;49.858;8.768;2024-02-04T05:31:54;1.27;;;1.17;;
6505;SDS011;3286;49.858;8.768;2024-02-04T05:34:20;1.53;;;1.40;;
6505;SDS011;3286;49.858;8.768;2024-02-04T05:36:47;2.13;;;1.13;;
6505;SDS011;3286;49.858;8.768;2024-02-04T05:39:14;1.30;;;1.20;;
6505;SDS011;3286;49.858;8.768;2024-02-04T05:41:42;1.30;;;1.20;;
6505;SDS011;3286;49.858;8.768;2024-02-04T05:44:09;1.07;;;1.03;;
6505;SDS011;3286;49.858;8.768;2024-02-04T05:46:38;1.20;;;1.03;;
6505;SDS011;3286;49.858;8.768;2024-02-04T05:49:05;1.57;;;1.20;;
6505;SDS011;3286;49.858;8.768;2024-02-04T05:51:31;1.17;;;1.10;;
6505;SDS011;3286;49.858;8.768;2024-02-04T05:53:59;3.77;;;1.47;;
6505;SDS011;3286;49.858;8.768;2024-02-04T05:56:26;2.70;;;1.30;;
6505;SDS011;3286;49.858;8.768;2024-02-04T05:58:53;1.53;;;1.27;;
6505;SDS011;3286;49.858;8.768;2024-02-04T06:01:20;2.43;;;1.23;;
6505;SDS011;3286;49.858;8.768;2024-02-04T06:03:48;1.20;;;1.10;;
6505;SDS011;3286;49.858;8.768;2024-02-04T06:06:15;1.80;;;1.10;;
6505;SDS011;3286;49.858;8.768;2024-02-04T06:08:44;1.10;;;1.10;;
6505;SDS011;3286;49.858;8.768;2024-02-04T06:11:11;1.10;;;1.00;;
6505;SDS011;3286;49.858;8.768;2024-02-04T06:13:39;1.20;;;1.10;;
6505;SDS011;3286;49.858;8.768;2024-02-04T06:16:09;1.13;;;1.00;;
6505;SDS011;3286;49.858;8.768;2024-02-04T06:18:37;1.10;;;1.00;;
6505;SDS011;3286;49.858;8.768;2024-02-04T06:21:05;1.30;;;1.20;;
6505;SDS011;3286;49.858;8.768;2024-02-04T06:23:32;2.10;;;1.00;;
6505;SDS011;3286;49.858;8.768;2024-02-04T06:26:07;2.00;;;1.07;;
6505;SDS011;3286;49.858;8.768;2024-02-04T06:28:34;3.43;;;1.63;;
6505;SDS011;3286;49.858;8.768;2024-02-04T06:31:01;1.30;;;1.20;;
6505;SDS011;3286;49.858;8.768;2024-02-04T06:33:28;1.13;;;1.03;;
6505;SDS011;3286;49.858;8.768;2024-02-04T06:35:54;1.90;;;1.13;;
6505;SDS011;3286;49.858;8.768;2024-02-04T06:38:23;8.87;;;2.00;;
6505;SDS011;3286;49.858;8.768;2024-02-04T06:40:50;1.20;;;1.10;;
6505;SDS011;3286;49.858;8.768;2024-02-04T06:43:16;1.00;;;0.90;;
6505;SDS011;3286;49.858;8.768;2024-02-04T06:45:43;0.97;;;0.90;;
6505;SDS011;3286;49.858;8.768;2024-02-04T06:48:11;1.10;;;0.77;;
6505;SDS011;3286;49.858;8.768;2024-02-04T06:50:38;0.90;;;0.90;;
6505;SDS011;3286;49.858;8.768;2024-02-04T06:53:05;1.63;;;0.90;;
6505;SDS011;3286;49.858;8.768;2024-02-04T06:55:33;0.90;;;0.90;;
6505;SDS011;3286;49.858;8.768;2024-02-04T06:57:59;1.60;;;1.27;;
6505;SDS011;3286;49.858;8.768;2024-02-04T07:00:26;0.90;;;0.90;;
6505;SDS011;3286;49.858;8.768;2024-02-04T07:02:53;1.27;;;1.20;;
6505;SDS011;3286;49.858;8.768;2024-02-04T07:05:19;1.03;;;1.00;;
6505;SDS011;3286;49.858;8.768;2024-02-04T07:07:47;0.60;;;0.60;;
6505;SDS011;3286;49.858;8.768;2024-02-04T07:10:13;1.00;;;0.90;;
6505;SDS011;3286;49.858;8.768;2024-02-04T07:12:41;1.67;;;0.83;;
6505;SDS011;3286;49.858;8.768;2024-02-04T07:15:09;1.20;;;0.90;;
6505;SDS011;3286;49.858;8.768;2024-02-04T07:17:35;0.80;;;0.80;;
6505;SDS011;3286;49.858;8.768;2024-02-04T07:20:02;0.83;;;0.83;;
6505;SDS011;3286;49.858;8.768;2024-02-04T07:22:30;1.00;;;0.87;;
6505;SDS011;3286;49.858;8.768;2024-02-04T07:24:56;0.57;;;0.57;;
6505;SDS011;3286;49.858;8.768;2024-02-04T07:27:23;0.70;;;0.70;;
6505;SDS011;3286;49.858;8.768;2024-02-04T07:29:51;1.40;;;0.53;;
6505;SDS011;3286;49.858;8.768;2024-02-04T07:32:20;0.60;;;0.60;;
6505;SDS011;3286;49.858;8.768;2024-02-04T07:34:48;11.40;;;2.73;;
6505;SDS011;3286;49.858;8.768;2024-02-04T07:37:15;0.60;;;0.60;;
6505;SDS011;3286;49.858;8.768;2024-02-04T07:39:42;0.87;;;0.87;;
6505;SDS011;3286;49.858;8.768;2024-02-04T07:42:09;0.40;;;0.40;;
6505;SDS011;3286;49.858;8.768;2024-02-04T07:44:36;0.50;;;0.50;;
6505;SDS011;3286;49.858;8.768;2024-02-04T07:47:04;0.47;;;0.47;;
6505;SDS011;3286;49.858;8.768;2024-02-04T07:49:31;3.73;;;0.60;;
6505;SDS011;3286;49.858;8.768;2024-02-04T07:51:57;0.40;;;0.40;;
6505;SDS011;3286;49.858;8.768;2024-02-04T07:54:26;0.63;;;0.57;;
6505;SDS011;3286;49.858;8.768;2024-02-04T07:56:53;0.93;;;0.40;;
6505;SDS011;3286;49.858;8.768;2024-02-04T07:59:20;0.50;;;0.40;;
6505;SDS011;3286;49.858;8.768;2024-02-04T08:01:49;0.83;;;0.50;;
6505;SDS011;3286;49.858;8.768;2024-02-04T08:04:18;0.50;;;0.50;;
6505;SDS011;3286;49.858;8.768;2024-02-04T08:06:44;0.87;;;0.67;;
6505;SDS011;3286;49.858;8.768;2024-02-04T08:09:11;0.50;;;0.50;;
6505;SDS011;3286;49.858;8.768;2024-02-04T08:11:38;15.13;;;3.57;;
6505;SDS011;3286;49.858;8.768;2024-02-04T08:14:13;0.40;;;0.40;;
6505;SDS011;3286;49.858;8.768;2024-02-04T08:16:40;1.07;;;1.00;;
6505;SDS011;3286;49.858;8.768;2024-02-04T08:19:07;2.00;;;0.57;;
6505;SDS011;3286;49.858;8.768;2024-02-04T08:21:35;0.47;;;0.47;;
6505;SDS011;3286;49.858;8.768;2024-02-04T08:24:02;0.50;;;0.50;;
6505;SDS011;3286;49.858;8.768;2024-02-04T08:26:29;0.83;;;0.50;;
6505;SDS011;3286;49.858;8.768;2024-02-04T08:28:56;0.40;;;0.40;;
6505;SDS011;3286;49.858;8.768;2024-02-04T08:31:22;0.37;;;0.37;;
6505;SDS011;3286;49.858;8.768;2024-02-04T08:33:49;0.53;;;0.53;;
6505;SDS011;3286;49.858;8.768;2024-02-04T08:36:17;0.67;;;0.50;;
6505;SDS011;3286;49.858;8.768;2024-02-04T08:38:46;0.50;;;0.50;;
6505;SDS011;3286;49.858;8.768;2024-02-04T08:41:13;0.40;;;0.40;;
6505;SDS011;3286;49.858;8.768;2024-02-04T08:43:39;0.70;;;0.50;;
6505;SDS011;3286;49.858;8.768;2024-02-04T08:46:06;0.60;;;0.60;;
6505;SDS011;3286;49.858;8.768;2024-02-04T08:48:33;0.30;;;0.30;;
6505;SDS011;3286;49.858;8.768;2024-02-04T08:51:00;0.30;;;0.30;;
6505;SDS011;3286;49.858;8.768;2024-02-04T08:53:27;0.30;;;0.30;;
6505;SDS011;3286;49.858;8.768;2024-02-04T08:55:55;1.73;;;0.50;;
6505;SDS011;3286;49.858;8.768;2024-02-04T08:58:22;0.40;;;0.40;;
6505;SDS011;3286;49.858;8.768;2024-02-04T09:00:49;0.30;;;0.30;;
6505;SDS011;3286;49.858;8.768;2024-02-04T09:03:15;0.30;;;0.30;;
6505;SDS011;3286;49.858;8.768;2024-02-04T09:05:42;0.63;;;0.43;;
6505;SDS011;3286;49.858;8.768;2024-02-04T09:08:09;3.40;;;0.90;;
6505;SDS011;3286;49.858;8.768;2024-02-04T09:10:36;0.30;;;0.30;;
6505;SDS011;3286;49.858;8.768;2024-02-04T09:13:05;0.37;;;0.30;;
6505;SDS011;3286;49.858;8.768;2024-02-04T09:15:32;0.40;;;0.40;;
6505;SDS011;3286;49.858;8.768;2024-02-04T09:17:58;2.43;;;0.93;;
6505;SDS011;3286;49.858;8.768;2024-02-04T09:20:25;7.03;;;1.53;;
6505;SDS011;3286;49.858;8.768;2024-02-04T09:22:52;0.83;;;0.50;;
6505;SDS011;3286;49.858;8.768;2024-02-04T09:25:18;14.03;;;3.47;;
6505;SDS011;3286;49.858;8.768;2024-02-04T09:27:45;2.27;;;1.90;;
6505;SDS011;3286;49.858;8.768;2024-02-04T09:30:21;0.57;;;0.37;;
6505;SDS011;3286;49.858;8.768;2024-02-04T09:32:48;0.40;;;0.40;;
6505;SDS011;3286;49.858;8.768;2024-02-04T09:35:15;0.57;;;0.50;;
6505;SDS011;3286;49.858;8.768;2024-02-04T09:37:41;0.53;;;0.53;;
6505;SDS011;3286;49.858;8.768;2024-02-04T09:40:08;0.37;;;0.37;;
6505;SDS011;3286;49.858;8.768;2024-02-04T09:42:36;0.50;;;0.50;;
6505;SDS011;3286;49.858;8.768;2024-02-04T09:45:03;0.40;;;0.40;;
6505;SDS011;3286;49.858;8.768;2024-02-04T09:47:32;0.33;;;0.33;;
6505;SDS011;3286;49.858;8.768;2024-02-04T09:50:01;0.87;;;0.53;;
6505;SDS011;3286;49.858;8.768;2024-02-04T09:52:28;0.60;;;0.60;;
6505;SDS011;3286;49.858;8.768;2024-02-04T09:54:57;0.33;;;0.33;;
6505;SDS011;3286;49.858;8.768;2024-02-04T09:57:26;0.77;;;0.50;;
6505;SDS011;3286;49.858;8.768;2024-02-04T09:59:55;3.13;;;0.80;;
6505;SDS011;3286;49.858;8.768;2024-02-04T10:02:21;1.37;;;0.77;;
6505;SDS011;3286;49.858;8.768;2024-02-04T10:04:50;0.97;;;0.70;;
6505;SDS011;3286;49.858;8.768;2024-02-04T10:07:17;0.97;;;0.40;;
6505;SDS011;3286;49.858;8.768;2024-02-04T10:12:45;1.27;;;0.60;;
6505;SDS011;3286;49.858;8.768;2024-02-04T10:15:12;1.37;;;0.60;;
6505;SDS011;3286;49.858;8.768;2024-02-04T10:17:41;8.20;;;2.73;;
6505;SDS011;3286;49.858;8.768;2024-02-04T10:20:11;0.80;;;0.60;;
6505;SDS011;3286;49.858;8.768;2024-02-04T10:22:37;0.30;;;0.30;;
6505;SDS011;3286;49.858;8.768;2024-02-04T10:25:07;0.60;;;0.60;;
6505;SDS011;3286;49.858;8.768;2024-02-04T10:27:37;1.80;;;0.90;;
6505;SDS011;3286;49.858;8.768;2024-02-04T10:30:04;0.33;;;0.33;;
6505;SDS011;3286;49.858;8.768;2024-02-04T10:32:31;0.30;;;0.30;;
6505;SDS011;3286;49.858;8.768;2024-02-04T10:34:58;0.30;;;0.30;;
6505;SDS011;3286;49.858;8.768;2024-02-04T10:37:27;2.70;;;0.40;;
6505;SDS011;3286;49.858;8.768;2024-02-04T10:40:06;0.97;;;0.97;;
6505;SDS011;3286;49.858;8.768;2024-02-04T10:42:33;0.50;;;0.40;;
6505;SDS011;3286;49.858;8.768;2024-02-04T10:45:04;0.93;;;0.60;;
6505;SDS011;3286;49.858;8.768;2024-02-04T10:47:34;0.30;;;0.30;;
6505;SDS011;3286;49.858;8.768;2024-02-04T10:50:04;0.60;;;0.40;;
6505;SDS011;3286;49.858;8.768;2024-02-04T10:52:35;0.20;;;0.20;;
6505;SDS011;3286;49.858;8.768;2024-02-04T10:55:05;2.63;;;1.03;;
6505;SDS011;3286;49.858;8.768;2024-02-04T11:00:28;0.50;;;0.50;;
6505;SDS011;3286;49.858;8.768;2024-02-04T11:02:59;0.50;;;0.40;;
6505;SDS011;3286;49.858;8.768;2024-02-04T11:05:28;2.90;;;1.17;;
6505;SDS011;3286;49.858;8.768;2024-02-04T11:07:57;0.73;;;0.73;;
6505;SDS011;3286;49.858;8.768;2024-02-04T11:10:24;0.50;;;0.50;;
6505;SDS011;3286;49.858;8.768;2024-02-04T11:12:54;0.57;;;0.47;;
6505;SDS011;3286;49.858;8.768;2024-02-04T11:15:28;0.53;;;0.53;;
6505;SDS011;3286;49.858;8.768;2024-02-04T11:18:15;0.50;;;0.50;;
6505;SDS011;3286;49.858;8.768;2024-02-04T11:21:03;0.70;;;0.70;;
6505;SDS011;3286;49.858;8.768;2024-02-04T11:23:54;0.50;;;0.50;;
6505;SDS011;3286;49.858;8.768;2024-02-04T11:26:32;0.40;;;0.40;;
6505;SDS011;3286;49.858;8.768;2024-02-04T11:29:00;1.10;;;0.57;;
6505;SDS011;3286;49.858;8.768;2024-02-04T11:31:28;0.77;;;0.50;;
6505;SDS011;3286;49.858;8.768;2024-02-04T11:33:56;0.53;;;0.53;;
6505;SDS011;3286;49.858;8.768;2024-02-04T11:36:24;0.70;;;0.60;;
6505;SDS011;3286;49.858;8.768;2024-02-04T11:38:52;0.50;;;0.50;;
6505;SDS011;3286;49.858;8.768;2024-02-04T11:41:22;0.30;;;0.30;;
6505;SDS011;3286;49.858;8.768;2024-02-04T11:43:52;0.50;;;0.50;;
6505;SDS011;3286;49.858;8.768;2024-02-04T11:46:21;0.60;;;0.60;;
6505;SDS011;3286;49.858;8.768;2024-02-04T11:48:52;0.90;;;0.80;;
6505;SDS011;3286;49.858;8.768;2024-02-04T11:51:21;0.50;;;0.50;;
6505;SDS011;3286;49.858;8.768;2024-02-04T11:53:50;0.73;;;0.73;;
6505;SDS011;3286;49.858;8.768;2024-02-04T11:56:19;0.60;;;0.60;;
6505;SDS011;3286;49.858;8.768;2024-02-04T11:58:46;0.50;;;0.50;;
6505;SDS011;3286;49.858;8.768;2024-02-04T12:01:13;0.70;;;0.53;;
6505;SDS011;3286;49.858;8.768;2024-02-04T12:03:41;1.20;;;0.50;;
6505;SDS011;3286;49.858;8.768;2024-02-04T12:06:10;8.70;;;2.43;;
6505;SDS011;3286;49.858;8.768;2024-02-04T12:08:40;1.10;;;0.90;;
6505;SDS011;3286;49.858;8.768;2024-02-04T12:11:09;0.93;;;0.87;;
6505;SDS011;3286;49.858;8.768;2024-02-04T12:13:38;1.23;;;0.80;;
6505;SDS011;3286;49.858;8.768;2024-02-04T12:16:07;2.07;;;0.87;;
6505;SDS011;3286;49.858;8.768;2024-02-04T12:18:34;1.73;;;0.83;;
6505;SDS011;3286;49.858;8.768;2024-02-04T12:21:01;0.87;;;0.80;;
6505;SDS011;3286;49.858;8.768;2024-02-04T12:23:29;1.33;;;0.80;;
6505;SDS011;3286;49.858;8.768;2024-02-04T12:25:56;0.80;;;0.80;;
6505;SDS011;3286;49.858;8.768;2024-02-04T12:28:23;0.67;;;0.67;;
6505;SDS011;3286;49.858;8.768;2024-02-04T12:30:54;2.93;;;1.00;;
6505;SDS011;3286;49.858;8.768;2024-02-04T12:33:21;1.03;;;0.80;;
6505;SDS011;3286;49.858;8.768;2024-02-04T12:35:50;1.60;;;0.90;;
6505;SDS011;3286;49.858;8.768;2024-02-04T12:38:18;1.03;;;0.87;;
6505;SDS011;3286;49.858;8.768;2024-02-04T12:40:46;1.10;;;1.00;;
6505;SDS011;3286;49.858;8.768;2024-02-04T12:43:13;1.20;;;1.10;;
6505;SDS011;3286;49.858;8.768;2024-02-04T12:45:40;0.90;;;0.90;;
6505;SDS011;3286;49.858;8.768;2024-02-04T12:48:08;0.77;;;0.77;;
6505;SDS011;3286;49.858;8.768;2024-02-04T12:50:36;0.73;;;0.73;;
6505;SDS011;3286;49.858;8.768;2024-02-04T12:53:06;0.90;;;0.90;;
6505;SDS011;3286;49.858;8.768;2024-02-04T12:55:35;0.70;;;0.70;;
6505;SDS011;3286;49.858;8.768;2024-02-04T12:58:03;0.93;;;0.93;;
6505;SDS011;3286;49.858;8.768;2024-02-04T13:00:45;1.00;;;0.90;;
6505;SDS011;3286;49.858;8.768;2024-02-04T13:03:15;1.43;;;1.00;;
6505;SDS011;3286;49.858;8.768;2024-02-04T13:05:41;1.17;;;1.00;;
6505;SDS011;3286;49.858;8.768;2024-02-04T13:08:08;0.97;;;0.90;;
6505;SDS011;3286;49.858;8.768;2024-02-04T13:10:36;1.20;;;1.10;;
6505;SDS011;3286;49.858;8.768;2024-02-04T13:13:03;1.60;;;0.93;;
6505;SDS011;3286;49.858;8.768;2024-02-04T13:15:32;0.83;;;0.83;;
6505;SDS011;3286;49.858;8.768;2024-02-04T13:17:59;0.97;;;0.90;;
6505;SDS011;3286;49.858;8.768;2024-02-04T13:20:28;1.07;;;0.83;;
6505;SDS011;3286;49.858;8.768;2024-02-04T13:22:55;0.70;;;0.70;;
6505;SDS011;3286;49.858;8.768;2024-02-04T13:25:23;1.13;;;0.80;;
6505;SDS011;3286;49.858;8.768;2024-02-04T13:27:51;0.70;;;0.70;;
6505;SDS011;3286;49.858;8.768;2024-02-04T13:30:19;0.63;;;0.63;;
6505;SDS011;3286;49.858;8.768;2024-02-04T13:32:46;0.67;;;0.67;;
6505;SDS011;3286;49.858;8.768;2024-02-04T13:35:12;0.60;;;0.60;;
6505;SDS011;3286;49.858;8.768;2024-02-04T13:37:43;1.17;;;1.07;;
6505;SDS011;3286;49.858;8.768;2024-02-04T13:40:13;1.23;;;1.13;;
6505;SDS011;3286;49.858;8.768;2024-02-04T13:42:40;1.60;;;1.00;;
6505;SDS011;3286;49.858;8.768;2024-02-04T13:45:07;0.67;;;0.67;;
6505;SDS011;3286;49.858;8.768;2024-02-04T13:47:40;3.60;;;1.50;;
6505;SDS011;3286;49.858;8.768;2024-02-04T13:50:07;1.10;;;1.00;;
6505;SDS011;3286;49.858;8.768;2024-02-04T13:52:36;0.50;;;0.50;;
6505;SDS011;3286;49.858;8.768;2024-02-04T13:55:05;1.13;;;1.03;;
6505;SDS011;3286;49.858;8.768;2024-02-04T13:57:33;1.10;;;0.70;;
6505;SDS011;3286;49.858;8.768;2024-02-04T14:00:00;0.60;;;0.60;;
6505;SDS011;3286;49.858;8.768;2024-02-04T14:02:28;0.73;;;0.73;;
6505;SDS011;3286;49.858;8.768;2024-02-04T14:04:55;0.63;;;0.63;;
6505;SDS011;3286;49.858;8.768;2024-02-04T14:07:23;1.80;;;0.97;;
6505;SDS011;3286;49.858;8.768;2024-02-04T14:09:51;0.50;;;0.50;;
6505;SDS011;3286;49.858;8.768;2024-02-04T14:12:19;1.33;;;0.70;;
6505;SDS011;3286;49.858;8.768;2024-02-04T14:14:46;0.60;;;0.60;;
6505;SDS011;3286;49.858;8.768;2024-02-04T14:17:12;1.23;;;0.63;;
6505;SDS011;3286;49.858;8.768;2024-02-04T14:19:39;0.60;;;0.60;;
6505;SDS011;3286;49.858;8.768;2024-02-04T14:22:06;1.27;;;1.17;;
6505;SDS011;3286;49.858;8.768;2024-02-04T14:24:32;1.33;;;0.90;;
6505;SDS011;3286;49.858;8.768;2024-02-04T14:26:59;1.13;;;0.70;;
6505;SDS011;3286;49.858;8.768;2024-02-04T14:29:27;2.00;;;0.90;;
6505;SDS011;3286;49.858;8.768;2024-02-04T14:31:54;0.70;;;0.70;;
6505;SDS011;3286;49.858;8.768;2024-02-04T14:34:24;1.03;;;0.90;;
6505;SDS011;3286;49.858;8.768;2024-02-04T14:36:52;1.77;;;1.20;;
6505;SDS011;3286;49.858;8.768;2024-02-04T14:39:19;2.80;;;1.10;;
6505;SDS011;3286;49.858;8.768;2024-02-04T14:41:46;7.60;;;4.40;;
6505;SDS011;3286;49.858;8.768;2024-02-04T14:44:20;1.80;;;1.47;;
6505;SDS011;3286;49.858;8.768;2024-02-04T14:46:49;1.10;;;1.00;;
6505;SDS011;3286;49.858;8.768;2024-02-04T14:49:16;1.60;;;1.50;;
6505;SDS011;3286;49.858;8.768;2024-02-04T14:51:43;2.50;;;2.13;;
6505;SDS011;3286;49.858;8.768;2024-02-04T14:54:09;2.70;;;1.93;;
6505;SDS011;3286;49.858;8.768;2024-02-04T14:56:37;1.93;;;1.20;;
6505;SDS011;3286;49.858;8.768;2024-02-04T14:59:03;0.90;;;0.80;;
6505;SDS011;3286;49.858;8.768;2024-02-04T15:01:31;1.17;;;1.07;;
6505;SDS011;3286;49.858;8.768;2024-02-04T15:03:59;0.90;;;0.70;;
6505;SDS011;3286;49.858;8.768;2024-02-04T15:06:26;1.33;;;1.00;;
6505;SDS011;3286;49.858;8.768;2024-02-04T15:08:54;0.93;;;0.90;;
6505;SDS011;3286;49.858;8.768;2024-02-04T15:11:21;1.40;;;1.30;;
6505;SDS011;3286;49.858;8.768;2024-02-04T15:13:48;0.80;;;0.80;;
6505;SDS011;3286;49.858;8.768;2024-02-04T15:16:16;1.10;;;1.00;;
6505;SDS011;3286;49.858;8.768;2024-02-04T15:18:43;1.13;;;1.03;;
6505;SDS011;3286;49.858;8.768;2024-02-04T15:21:12;1.20;;;1.10;;
6505;SDS011;3286;49.858;8.768;2024-02-04T15:23:39;1.20;;;1.10;;
6505;SDS011;3286;49.858;8.768;2024-02-04T15:26:06;1.30;;;1.20;;